Sand Lake, Florida
Current Conditions -  °F | °C
As of 12:53 PM on Friday 24 Oct 2014 (Local Time) from KMCO Reporting Station
Scattered Clouds Scattered Clouds  
Wind Chill: 27°   Ceiling: Unl
Heat Index: 28°   Visibility: 10mi
Dew Point: 16°   Wind: 12mph
Humidity: 49%   Direction: 50°NE
Pressure: 29.98"   Gusts: 21mph
Location:  28.4565°N, 81.4676°W
Report Text: KMCO 241653Z 05010G18KT 10SM SCT042 27/16 A2998 RMK AO2 SLP149 T02720156 $
Loading
Personal Weather Stations






























Interactive Weather Map
Tropical Storm Tracking
New forecast layout! Learn more

10-Day Weather Forecast

Advertisements
Track Severe Weather on mobile